Time;durP1;ratioP1;P1;durP2;ratioP2;P2;SDS_P1;SDS_P2;PMS_P1;PMS_P2;Temp;Humidity;BMP_temperature;BMP_pressure;BME280_temperature;BME280_humidity;BME280_pressure;Samples;Min_cycle;Max_cycle;Signal;HPM_P1;HPM_P2
2021/05/26 00:00:23;;;;;;;2.13;0.80;;;;;;;12.03;62.19;98790.13;4845128;29;102674;-79
2021/05/26 00:02:54;;;;;;;2.00;0.77;;;;;;;11.96;62.39;98784.44;4859245;28;102553;-80
2021/05/26 00:05:25;;;;;;;1.07;0.80;;;;;;;12.00;62.87;98780.59;4862879;28;103980;-79
2021/05/26 00:07:57;;;;;;;1.47;0.80;;;;;;;11.91;64.15;98776.00;4860001;28;105092;-79
2021/05/26 00:10:27;;;;;;;1.93;0.80;;;;;;;11.99;64.46;98778.06;4864385;28;102530;-79
2021/05/26 00:12:58;;;;;;;2.33;1.00;;;;;;;11.95;63.84;98780.13;4845166;28;102756;-79
2021/05/26 00:15:29;;;;;;;1.07;0.70;;;;;;;11.95;64.36;98769.53;4845899;29;103521;-79
2021/05/26 00:18:00;;;;;;;2.23;0.70;;;;;;;11.98;62.98;98771.94;4861185;28;103357;-79
2021/05/26 00:20:31;;;;;;;3.17;0.73;;;;;;;12.08;62.68;98762.31;4860784;28;102513;-79
2021/05/26 00:23:02;;;;;;;1.20;0.80;;;;;;;12.16;62.36;98759.06;4861471;28;102438;-80
2021/05/26 00:25:34;;;;;;;1.47;0.90;;;;;;;12.19;62.48;98764.13;4862540;28;103449;-79
2021/05/26 00:28:06;;;;;;;1.60;1.10;;;;;;;12.17;62.74;98748.38;4857020;28;103533;-80
2021/05/26 00:30:43;;;;;;;2.30;1.00;;;;;;;12.24;62.13;98753.19;4857407;28;102515;-80
2021/05/26 00:33:14;;;;;;;2.17;0.90;;;;;;;12.20;62.71;98748.13;4862011;28;102466;-80
2021/05/26 00:35:47;;;;;;;2.73;0.93;;;;;;;12.25;62.93;98746.91;4849746;28;102958;-79
2021/05/26 00:38:20;;;;;;;1.93;0.80;;;;;;;12.27;62.76;98751.13;4841168;28;103437;-79
2021/05/26 00:40:50;;;;;;;2.13;0.87;;;;;;;12.23;63.29;98743.56;4861218;28;103190;-79
2021/05/26 00:43:22;;;;;;;2.43;1.10;;;;;;;12.14;63.83;98743.31;4859415;28;102618;-80
2021/05/26 00:45:53;;;;;;;1.43;0.87;;;;;;;12.15;63.88;98730.91;4860495;28;103618;-80
2021/05/26 00:48:24;;;;;;;2.80;0.90;;;;;;;12.17;63.86;98729.84;4858245;28;104575;-80
2021/05/26 00:50:55;;;;;;;2.27;0.70;;;;;;;12.23;63.62;98732.97;4859724;28;102713;-79
2021/05/26 00:53:27;;;;;;;1.03;0.80;;;;;;;12.25;63.71;98731.03;4857573;28;102795;-79
2021/05/26 00:55:57;;;;;;;1.53;0.67;;;;;;;12.32;63.57;98726.94;4843955;28;103582;-79
2021/05/26 00:58:30;;;;;;;3.17;0.97;;;;;;;12.25;63.91;98720.44;4860273;28;103289;-80
2021/05/26 01:01:00;;;;;;;1.43;0.83;;;;;;;12.31;64.18;98720.81;4847820;28;102985;-80
2021/05/26 01:03:32;;;;;;;1.50;0.87;;;;;;;12.38;63.92;98726.47;4858472;28;103090;-80
2021/05/26 01:06:06;;;;;;;1.77;0.60;;;;;;;12.33;66.40;98732.09;4861189;28;104479;-79
2021/05/26 01:08:37;;;;;;;1.23;0.70;;;;;;;12.24;67.63;98729.34;4856526;28;103413;-79
2021/05/26 01:11:09;;;;;;;3.43;1.20;;;;;;;12.09;70.61;98726.09;4844532;28;102646;-79
2021/05/26 01:13:43;;;;;;;1.50;0.70;;;;;;;11.98;71.40;98718.16;4833087;28;102595;-79
2021/05/26 01:16:13;;;;;;;1.43;0.90;;;;;;;12.01;70.84;98718.72;4838490;28;104745;-79
2021/05/26 01:18:45;;;;;;;3.27;1.23;;;;;;;12.03;71.66;98719.47;4850879;28;105076;-79
2021/05/26 01:21:20;;;;;;;1.83;0.90;;;;;;;12.04;71.02;98721.13;4833649;28;102558;-79
2021/05/26 01:23:53;;;;;;;1.87;0.80;;;;;;;12.02;71.37;98720.44;4833282;28;102702;-79
2021/05/26 01:26:32;;;;;;;2.90;0.87;;;;;;;12.06;71.03;98713.94;4849453;28;103826;-79
2021/05/26 01:29:04;;;;;;;1.43;1.07;;;;;;;11.95;71.58;98713.09;4851090;28;104818;-79
2021/05/26 01:31:34;;;;;;;2.57;0.97;;;;;;;11.89;71.47;98709.09;4836709;28;102517;-79
2021/05/26 01:34:08;;;;;;;3.03;0.80;;;;;;;11.97;70.63;98706.72;4850882;28;102641;-79
2021/05/26 01:36:46;;;;;;;1.13;0.80;;;;;;;11.88;71.00;98696.81;4847362;28;103447;-79
2021/05/26 01:39:19;;;;;;;1.97;1.17;;;;;;;11.88;69.79;98691.53;4854047;28;102497;-79
2021/05/26 01:41:50;;;;;;;1.33;0.70;;;;;;;11.90;69.74;98688.78;4851768;28;103338;-79
2021/05/26 01:44:24;;;;;;;3.50;0.90;;;;;;;11.91;69.91;98691.28;4835145;28;102939;-79
2021/05/26 01:47:02;;;;;;;1.77;0.77;;;;;;;11.90;69.80;98689.59;4834043;28;104611;-79
2021/05/26 01:49:35;;;;;;;1.63;0.80;;;;;;;11.88;69.75;98680.09;4837372;28;104520;-79
2021/05/26 01:52:07;;;;;;;1.67;0.87;;;;;;;11.82;70.46;98673.47;4835109;28;102710;-79
2021/05/26 01:54:38;;;;;;;2.07;1.00;;;;;;;11.73;70.04;98671.56;4871242;28;102796;-79
2021/05/26 01:57:13;;;;;;;2.37;0.70;;;;;;;11.73;70.07;98671.56;4872049;28;102939;-79
2021/05/26 01:59:44;;;;;;;4.90;0.97;;;;;;;11.82;70.21;98664.69;4872833;28;103295;-80
2021/05/26 02:02:19;;;;;;;1.37;0.70;;;;;;;11.81;70.04;98671.81;4848309;28;102722;-80
2021/05/26 02:04:52;;;;;;;2.43;0.97;;;;;;;11.73;69.85;98668.91;4870716;28;102582;-80
2021/05/26 02:07:23;;;;;;;3.57;1.07;;;;;;;11.83;69.19;98661.94;4857756;28;103406;-79
2021/05/26 02:09:55;;;;;;;2.67;0.80;;;;;;;11.85;69.19;98664.44;4874261;28;103247;-80
2021/05/26 02:12:33;;;;;;;1.33;0.73;;;;;;;11.67;69.48;98656.13;4853879;28;103000;-80
2021/05/26 02:15:08;;;;;;;1.43;0.73;;;;;;;11.73;68.99;98655.69;4870448;28;102557;-80
2021/05/26 02:17:39;;;;;;;2.53;0.80;;;;;;;11.81;69.16;98653.28;4854731;28;103269;-79
2021/05/26 02:20:13;;;;;;;3.07;0.70;;;;;;;11.79;68.39;98651.72;4852104;28;103310;-79
2021/05/26 02:22:44;;;;;;;1.93;0.90;;;;;;;11.67;68.86;98655.28;4854119;28;103287;-80
2021/05/26 02:25:19;;;;;;;2.83;0.70;;;;;;;11.82;68.63;98648.81;4871436;28;102679;-80
2021/05/26 02:27:52;;;;;;;1.50;0.70;;;;;;;11.80;68.48;98656.03;4870001;28;103516;-80
2021/05/26 02:30:25;;;;;;;2.77;0.90;;;;;;;11.77;68.35;98645.69;4873093;28;103264;-80
2021/05/26 02:32:57;;;;;;;1.80;1.07;;;;;;;11.73;68.60;98638.97;4869271;28;102464;-80
2021/05/26 02:35:31;;;;;;;2.87;0.83;;;;;;;11.62;68.82;98637.13;4855302;28;103012;-80
2021/05/26 02:38:02;;;;;;;1.47;0.70;;;;;;;11.64;69.02;98638.69;4852688;28;103713;-80
2021/05/26 02:40:35;;;;;;;2.77;0.93;;;;;;;11.61;69.13;98638.06;4871281;28;102610;-80
2021/05/26 02:43:16;;;;;;;1.43;0.80;;;;;;;11.57;69.76;98639.25;4852479;28;102531;-80
2021/05/26 02:45:46;;;;;;;1.27;0.77;;;;;;;11.63;69.86;98641.44;4853495;28;103252;-80
2021/05/26 02:48:16;;;;;;;1.57;0.90;;;;;;;11.59;70.17;98638.16;4870226;28;102811;-79
2021/05/26 02:50:48;;;;;;;1.63;1.00;;;;;;;11.56;70.79;98634.94;4871063;28;103179;-80
2021/05/26 02:53:19;;;;;;;3.73;0.90;;;;;;;11.47;71.00;98635.63;4844103;28;102742;-79
2021/05/26 02:55:51;;;;;;;4.00;1.13;;;;;;;11.50;71.13;98635.41;4838730;28;103051;-79
2021/05/26 02:58:38;;;;;;;2.93;1.00;;;;;;;11.42;71.81;98636.00;4862999;28;102652;-79
2021/05/26 03:01:30;;;;;;;3.30;0.97;;;;;;;11.30;72.31;98641.38;4849553;28;103268;-79
2021/05/26 03:04:12;;;;;;;3.27;1.00;;;;;;;11.39;72.56;98648.63;4863847;28;103299;-79
2021/05/26 03:07:22;;;;;;;4.30;1.00;;;;;;;11.40;73.21;98639.69;4863038;28;103070;-79
2021/05/26 03:10:14;;;;;;;2.77;1.20;;;;;;;11.38;73.53;98644.28;4833670;29;103484;-79
2021/05/26 03:12:51;;;;;;;3.00;1.17;;;;;;;11.33;74.25;98646.44;4796693;29;105987;-78
2021/05/26 03:15:21;;;;;;;1.87;0.80;;;;;;;11.36;74.38;98654.13;4810544;29;103303;-79
2021/05/26 03:18:21;;;;;;;2.53;1.20;;;;;;;11.29;75.69;98645.81;4803480;29;103999;-79
2021/05/26 03:20:52;;;;;;;2.37;1.07;;;;;;;11.40;74.96;98647.63;4817558;29;103136;-79
2021/05/26 03:23:39;;;;;;;2.53;1.17;;;;;;;11.36;75.33;98636.47;4815370;29;103228;-80
2021/05/26 03:26:23;;;;;;;3.13;0.80;;;;;;;11.42;75.60;98651.88;4800991;28;102784;-80
2021/05/26 03:28:54;;;;;;;2.37;1.00;;;;;;;11.48;76.12;98645.28;4858883;28;103022;-78
2021/05/26 03:31:26;;;;;;;2.47;1.13;;;;;;;11.38;76.88;98647.78;4858347;28;104488;-79
2021/05/26 03:33:56;;;;;;;3.43;0.90;;;;;;;11.45;76.86;98645.50;4843935;28;103917;-78
2021/05/26 03:36:27;;;;;;;1.93;0.93;;;;;;;11.46;76.74;98636.59;4840366;28;103085;-79
2021/05/26 03:38:57;;;;;;;2.17;1.00;;;;;;;11.39;77.31;98635.38;4858938;28;103003;-79
2021/05/26 03:41:29;;;;;;;2.87;0.90;;;;;;;11.31;76.99;98635.13;4841691;28;103791;-79
2021/05/26 03:44:00;;;;;;;2.17;1.00;;;;;;;11.39;76.91;98624.81;4862348;28;107315;-79
2021/05/26 03:46:31;;;;;;;1.93;0.90;;;;;;;11.41;76.65;98622.88;4874737;28;103600;-79
2021/05/26 03:49:01;;;;;;;4.07;0.97;;;;;;;11.42;76.57;98620.13;4868800;28;103996;-78
2021/05/26 03:51:33;;;;;;;1.70;0.80;;;;;;;11.43;75.86;98628.88;4870774;28;103443;-81
2021/05/26 03:54:05;;;;;;;1.83;0.83;;;;;;;11.41;75.81;98623.72;4851904;28;104908;-80
2021/05/26 03:56:45;;;;;;;2.47;0.90;;;;;;;11.39;75.89;98615.09;4874159;28;103925;-78
2021/05/26 03:59:20;;;;;;;2.30;0.87;;;;;;;11.49;75.53;98616.03;4872591;28;103070;-79
2021/05/26 04:01:52;;;;;;;2.67;1.00;;;;;;;11.48;75.13;98613.53;4869173;28;103653;-79
2021/05/26 04:04:23;;;;;;;2.20;1.10;;;;;;;11.52;74.95;98609.66;4870319;28;103305;-78
2021/05/26 04:06:56;;;;;;;2.00;1.10;;;;;;;11.48;75.07;98610.88;4872997;28;102520;-79
2021/05/26 04:09:27;;;;;;;2.13;0.87;;;;;;;11.55;74.85;98610.28;4873149;28;103010;-79
2021/05/26 04:11:57;;;;;;;2.53;1.37;;;;;;;11.53;75.16;98611.38;4859695;28;103501;-80
2021/05/26 04:14:46;;;;;;;2.27;1.00;;;;;;;11.55;74.98;98612.06;4864627;28;103943;-78
2021/05/26 04:17:35;;;;;;;2.93;1.00;;;;;;;11.56;74.00;98608.47;4889677;28;102493;-79
2021/05/26 04:20:32;;;;;;;1.40;0.83;;;;;;;11.63;74.10;98607.03;4887668;28;103735;-78
2021/05/26 04:23:13;;;;;;;5.93;1.47;;;;;;;11.55;74.46;98612.94;4889744;28;104431;-78
2021/05/26 04:26:00;;;;;;;2.47;1.00;;;;;;;11.58;74.34;98619.78;4890444;28;102667;-76
2021/05/26 04:28:30;;;;;;;2.50;1.00;;;;;;;11.64;74.08;98614.00;4893039;28;102573;-79
2021/05/26 04:31:02;;;;;;;2.10;1.03;;;;;;;11.58;74.05;98619.78;4891706;28;102513;-77
2021/05/26 04:33:33;;;;;;;2.40;0.97;;;;;;;11.58;74.22;98614.50;4885577;28;104059;-77
2021/05/26 04:36:06;;;;;;;1.83;0.80;;;;;;;11.60;74.69;98612.56;4895208;28;103226;-76
2021/05/26 04:38:37;;;;;;;1.50;0.80;;;;;;;11.60;75.35;98607.25;4875198;28;103168;-76
2021/05/26 04:41:07;;;;;;;7.13;1.40;;;;;;;11.56;75.29;98605.84;4889099;28;102618;-76
2021/05/26 04:43:42;;;;;;;5.27;1.37;;;;;;;11.49;76.00;98599.31;4879124;28;103124;-76
2021/05/26 04:46:13;;;;;;;2.67;0.80;;;;;;;11.41;76.35;98589.34;4890286;28;103185;-76
2021/05/26 04:48:43;;;;;;;2.83;0.80;;;;;;;11.49;75.98;98579.00;4891282;28;103244;-77
2021/05/26 04:51:13;;;;;;;1.97;0.93;;;;;;;11.48;75.96;98572.03;4892946;28;102494;-76
2021/05/26 04:53:43;;;;;;;1.87;1.00;;;;;;;11.46;76.13;98576.59;4880691;28;104920;-76
2021/05/26 04:56:13;;;;;;;2.13;0.80;;;;;;;11.39;76.23;98577.19;4880424;28;102554;-76
2021/05/26 04:58:44;;;;;;;1.33;0.73;;;;;;;11.39;75.36;98582.50;4891567;28;103182;-76
2021/05/26 05:01:16;;;;;;;2.57;1.20;;;;;;;11.43;75.82;98581.28;4888207;28;103039;-76
2021/05/26 05:03:47;;;;;;;2.97;0.93;;;;;;;11.41;76.03;98578.75;4885591;28;103414;-76
2021/05/26 05:06:20;;;;;;;3.03;1.00;;;;;;;11.35;75.99;98583.66;4885815;28;103288;-77
2021/05/26 05:08:52;;;;;;;4.00;0.80;;;;;;;11.44;75.72;98588.25;4889990;28;102609;-76
2021/05/26 05:11:22;;;;;;;3.73;1.03;;;;;;;11.37;76.09;98587.03;4886927;28;102572;-76
2021/05/26 05:13:52;;;;;;;2.20;1.00;;;;;;;11.24;77.98;98589.78;4883700;28;103897;-76
2021/05/26 05:16:24;;;;;;;3.33;0.93;;;;;;;11.35;77.74;98581.03;4883105;28;104313;-76
2021/05/26 05:18:53;;;;;;;2.57;0.93;;;;;;;11.40;78.66;98589.44;4885955;28;102580;-76
2021/05/26 05:21:26;;;;;;;0.87;0.77;;;;;;;11.28;79.39;98590.41;4883833;28;102650;-76
2021/05/26 05:23:56;;;;;;;2.93;1.10;;;;;;;11.32;79.89;98586.56;4881944;28;103428;-76
2021/05/26 05:26:26;;;;;;;3.27;1.40;;;;;;;11.27;80.49;98591.34;4883935;28;103334;-76
2021/05/26 05:29:04;;;;;;;5.57;1.20;;;;;;;11.35;82.59;98588.97;4886071;28;102616;-76
2021/05/26 05:31:36;;;;;;;2.67;0.80;;;;;;;11.12;82.75;98582.78;4886029;28;102868;-76
2021/05/26 05:34:07;;;;;;;2.03;0.97;;;;;;;11.17;82.19;98577.97;4885414;28;104511;-76
2021/05/26 05:36:39;;;;;;;4.97;1.23;;;;;;;11.16;84.25;98575.47;4886625;28;104476;-76
2021/05/26 05:39:09;;;;;;;2.73;1.07;;;;;;;11.22;83.20;98564.44;4876250;28;102980;-76
2021/05/26 05:41:43;;;;;;;1.80;1.00;;;;;;;11.30;82.83;98568.16;4871210;28;102637;-76
2021/05/26 05:44:14;;;;;;;3.80;1.10;;;;;;;11.27;83.45;98563.13;4882265;28;105108;-77
2021/05/26 05:46:46;;;;;;;2.70;0.97;;;;;;;11.25;84.14;98572.13;4883141;28;103303;-76
2021/05/26 05:49:16;;;;;;;2.03;1.20;;;;;;;11.13;85.14;98573.91;4882987;28;102660;-76
2021/05/26 05:51:49;;;;;;;2.77;1.13;;;;;;;11.28;85.13;98574.53;4885636;28;102591;-77
2021/05/26 05:54:19;;;;;;;2.33;1.00;;;;;;;11.38;85.04;98576.34;4897492;28;103565;-76
2021/05/26 05:56:49;;;;;;;1.50;0.90;;;;;;;11.41;85.83;98585.84;4900609;28;103793;-76
2021/05/26 05:59:20;;;;;;;2.90;1.27;;;;;;;11.27;86.50;98583.44;4897582;28;103183;-76
2021/05/26 06:01:52;;;;;;;1.67;0.90;;;;;;;11.18;87.01;98582.31;4898357;28;103236;-76
2021/05/26 06:04:22;;;;;;;2.97;1.00;;;;;;;11.17;87.39;98582.47;4888017;28;103847;-76
2021/05/26 06:06:52;;;;;;;2.30;1.10;;;;;;;11.13;88.12;98567.78;4898541;28;103337;-76
2021/05/26 06:09:24;;;;;;;2.43;1.10;;;;;;;11.10;90.04;98575.94;4879466;28;102583;-76
2021/05/26 06:11:55;;;;;;;2.73;1.03;;;;;;;11.17;88.52;98566.59;4895194;28;103190;-76
2021/05/26 06:14:26;;;;;;;3.23;1.10;;;;;;;11.20;88.90;98571.66;4901048;28;103432;-76
2021/05/26 06:17:02;;;;;;;2.77;1.20;;;;;;;11.18;89.22;98562.97;4883135;28;103110;-76
2021/05/26 06:19:34;;;;;;;2.53;1.10;;;;;;;11.29;88.34;98563.84;4905802;28;102431;-76
2021/05/26 06:22:05;;;;;;;2.23;1.00;;;;;;;11.40;88.33;98557.69;4901877;28;103037;-76
2021/05/26 06:24:37;;;;;;;2.50;1.23;;;;;;;11.38;88.48;98572.84;4905440;28;103669;-76
2021/05/26 06:27:08;;;;;;;1.50;1.03;;;;;;;11.47;88.30;98569.50;4905279;28;103609;-76
2021/05/26 06:29:39;;;;;;;2.70;1.13;;;;;;;11.54;87.66;98565.41;4903814;28;102677;-76
2021/05/26 06:32:11;;;;;;;2.30;0.90;;;;;;;11.58;87.69;98561.56;4905339;28;102549;-76
2021/05/26 06:34:42;;;;;;;3.13;1.27;;;;;;;11.49;88.72;98562.28;4903557;28;103455;-76
2021/05/26 06:37:12;;;;;;;2.27;1.00;;;;;;;11.49;88.10;98559.63;4902432;28;102821;-76
2021/05/26 06:39:43;;;;;;;1.90;1.07;;;;;;;11.54;88.23;98560.13;4904200;28;102563;-76
2021/05/26 06:42:14;;;;;;;1.50;0.90;;;;;;;11.42;89.22;98558.44;4901711;28;102566;-75
2021/05/26 06:44:44;;;;;;;2.00;1.40;;;;;;;11.42;90.01;98555.81;4907097;28;103818;-76
2021/05/26 06:47:18;;;;;;;3.37;1.20;;;;;;;11.41;89.35;98551.47;4905461;28;102980;-76
2021/05/26 06:49:48;;;;;;;6.30;1.50;;;;;;;11.40;89.90;98555.06;4885585;28;102800;-76
2021/05/26 06:52:19;;;;;;;2.40;1.13;;;;;;;11.42;90.59;98561.09;4903643;28;102548;-76
2021/05/26 06:54:50;;;;;;;2.70;1.20;;;;;;;11.54;90.75;98560.97;4907136;28;104587;-76
2021/05/26 06:57:22;;;;;;;1.73;1.17;;;;;;;11.79;89.93;98557.25;4904422;28;103392;-76
2021/05/26 06:59:52;;;;;;;2.87;1.23;;;;;;;11.99;89.32;98551.22;4902516;28;102680;-76
2021/05/26 07:02:26;;;;;;;2.07;1.30;;;;;;;12.04;88.87;98540.28;4905356;28;102722;-77
2021/05/26 07:04:57;;;;;;;2.07;1.00;;;;;;;12.09;88.72;98544.22;4902650;28;103283;-76
2021/05/26 07:07:28;;;;;;;2.40;1.20;;;;;;;12.01;89.08;98543.97;4881006;28;103542;-76
2021/05/26 07:10:00;;;;;;;2.90;1.27;;;;;;;12.01;88.49;98538.69;4880179;28;102663;-76
2021/05/26 07:12:31;;;;;;;5.77;1.60;;;;;;;12.01;89.00;98533.38;4906706;28;103088;-78
2021/05/26 07:15:02;;;;;;;2.53;1.40;;;;;;;12.10;89.02;98531.81;4904932;28;103519;-76
2021/05/26 07:17:35;;;;;;;2.27;1.40;;;;;;;12.20;87.84;98528.31;4900688;28;102545;-76
2021/05/26 07:20:07;;;;;;;1.20;0.97;;;;;;;12.34;88.15;98532.47;4903491;28;103300;-75
2021/05/26 07:22:40;;;;;;;2.23;1.10;;;;;;;12.45;88.03;98528.94;4902496;28;103223;-75
2021/05/26 07:25:13;;;;;;;2.93;1.40;;;;;;;12.30;87.08;98527.53;4903089;28;103388;-76
2021/05/26 07:27:43;;;;;;;2.60;1.40;;;;;;;12.15;87.87;98525.16;4902613;28;103318;-76
2021/05/26 07:30:17;;;;;;;4.90;1.47;;;;;;;12.15;88.15;98525.16;4906075;28;102680;-76
2021/05/26 07:32:49;;;;;;;2.67;1.70;;;;;;;12.34;87.43;98524.53;4885177;28;102696;-76
2021/05/26 07:35:20;;;;;;;2.17;1.33;;;;;;;12.45;87.07;98526.28;4905041;28;102501;-75
2021/05/26 07:37:52;;;;;;;2.63;1.40;;;;;;;12.56;87.58;98527.09;4903737;28;104206;-75
2021/05/26 07:40:22;;;;;;;2.27;1.30;;;;;;;12.30;87.63;98522.25;4904352;28;102546;-75
2021/05/26 07:42:53;;;;;;;3.03;1.27;;;;;;;12.37;88.93;98523.44;4904679;28;102429;-76
2021/05/26 07:45:25;;;;;;;3.67;1.50;;;;;;;12.40;87.73;98529.31;4904593;28;102935;-76
2021/05/26 07:47:57;;;;;;;3.87;1.57;;;;;;;12.41;87.97;98524.84;4903929;28;103317;-76
2021/05/26 07:50:33;;;;;;;1.90;1.30;;;;;;;12.47;87.69;98521.69;4902729;28;103445;-76
2021/05/26 07:53:06;;;;;;;3.20;1.20;;;;;;;12.21;88.06;98527.31;4901517;28;102568;-76
2021/05/26 07:55:37;;;;;;;2.20;1.03;;;;;;;12.46;87.79;98525.34;4904867;28;103686;-77
2021/05/26 07:58:08;;;;;;;2.37;1.30;;;;;;;12.25;89.02;98527.91;4904468;28;103174;-77
2021/05/26 08:00:40;;;;;;;2.37;1.13;;;;;;;12.51;88.17;98531.09;4903777;28;102510;-76
2021/05/26 08:03:13;;;;;;;1.70;1.13;;;;;;;12.63;87.34;98516.81;4902970;28;102585;-76
2021/05/26 08:05:43;;;;;;;5.27;1.80;;;;;;;12.80;86.46;98521.53;4903302;28;103284;-77
2021/05/26 08:08:14;;;;;;;4.70;1.60;;;;;;;12.64;87.29;98521.13;4903341;28;103267;-76
2021/05/26 08:10:45;;;;;;;3.93;1.77;;;;;;;12.68;86.59;98511.97;4903426;28;102663;-77
2021/05/26 08:13:15;;;;;;;3.93;1.53;;;;;;;12.46;84.72;98517.38;4903545;28;102545;-76
2021/05/26 08:15:46;;;;;;;5.07;1.87;;;;;;;12.35;85.38;98520.88;4896078;28;104940;-77
2021/05/26 08:18:19;;;;;;;4.27;1.77;;;;;;;12.53;86.28;98529.13;4903574;28;103175;-76
2021/05/26 08:20:52;;;;;;;4.27;1.77;;;;;;;12.30;87.15;98517.78;4903705;28;103255;-76
2021/05/26 08:23:25;;;;;;;4.13;1.53;;;;;;;12.15;85.84;98509.28;4900651;28;102687;-77
2021/05/26 08:25:55;;;;;;;2.47;1.37;;;;;;;12.20;85.22;98524.81;4899710;28;103675;-77
2021/05/26 08:28:26;;;;;;;3.60;1.60;;;;;;;12.30;84.38;98522.25;4901590;28;103335;-77
2021/05/26 08:30:57;;;;;;;3.77;1.57;;;;;;;12.10;84.39;98527.34;4902114;28;102629;-77
2021/05/26 08:33:29;;;;;;;3.80;1.30;;;;;;;12.11;85.58;98513.16;4898616;28;103071;-77
2021/05/26 08:35:59;;;;;;;3.37;1.50;;;;;;;12.14;85.34;98526.16;4901646;28;103379;-77
2021/05/26 08:38:31;;;;;;;4.30;1.70;;;;;;;12.00;83.20;98510.53;4904037;28;103240;-77
2021/05/26 08:41:04;;;;;;;3.43;1.43;;;;;;;12.02;84.31;98524.50;4904685;28;102555;-76
2021/05/26 08:43:37;;;;;;;3.53;1.70;;;;;;;11.99;83.55;98519.44;4903446;28;103053;-76
2021/05/26 08:46:08;;;;;;;3.13;1.33;;;;;;;12.09;82.65;98514.25;4904607;28;103406;-76
2021/05/26 08:48:40;;;;;;;4.30;1.57;;;;;;;12.31;84.38;98514.19;4902849;28;104544;-76
2021/05/26 08:51:13;;;;;;;2.60;1.50;;;;;;;12.38;84.07;98515.34;4897648;28;102582;-77
2021/05/26 08:53:44;;;;;;;5.53;1.63;;;;;;;12.35;82.88;98512.13;4901245;28;103076;-76
2021/05/26 08:56:16;;;;;;;4.70;1.70;;;;;;;12.16;82.63;98518.91;4903294;28;104870;-76
2021/05/26 08:58:46;;;;;;;2.40;1.50;;;;;;;12.39;82.53;98517.03;4903905;28;103271;-76
2021/05/26 09:01:17;;;;;;;4.13;1.30;;;;;;;12.31;83.03;98518.63;4903270;28;102631;-76
2021/05/26 09:03:50;;;;;;;3.40;1.67;;;;;;;12.49;82.94;98517.94;4903633;28;103147;-76
2021/05/26 09:06:20;;;;;;;2.60;1.47;;;;;;;12.68;82.45;98512.81;4902707;28;102597;-76
2021/05/26 09:08:53;;;;;;;3.27;1.70;;;;;;;12.62;81.40;98513.31;4903814;28;103357;-77
2021/05/26 09:11:32;;;;;;;3.80;1.60;;;;;;;12.81;81.17;98512.63;4903735;28;102943;-77
2021/05/26 09:14:11;;;;;;;3.53;1.50;;;;;;;12.78;80.49;98518.19;4904188;28;102382;-77
2021/05/26 09:16:42;;;;;;;2.80;1.60;;;;;;;12.50;81.38;98521.44;4903335;28;102674;-76
2021/05/26 09:19:14;;;;;;;2.87;1.50;;;;;;;12.49;82.44;98519.78;4903231;28;103291;-76
2021/05/26 09:21:46;;;;;;;4.20;1.63;;;;;;;12.29;81.30;98516.13;4905539;28;102548;-76
2021/05/26 09:24:30;;;;;;;2.50;1.40;;;;;;;12.16;79.25;98521.56;4906157;28;102556;-77
2021/05/26 09:27:01;;;;;;;4.67;2.00;;;;;;;12.26;80.05;98510.22;4922612;28;103738;-77
2021/05/26 09:29:32;;;;;;;2.33;1.23;;;;;;;12.50;80.07;98518.78;4905017;28;103442;-76
2021/05/26 09:32:13;;;;;;;3.33;1.37;;;;;;;12.47;79.81;98509.28;4894840;28;103121;-77
2021/05/26 09:34:46;;;;;;;2.10;1.30;;;;;;;12.62;79.29;98517.78;4893468;28;102638;-77
2021/05/26 09:37:18;;;;;;;3.87;1.53;;;;;;;12.66;78.42;98520.03;4902974;28;103460;-77
2021/05/26 09:39:53;;;;;;;3.57;1.40;;;;;;;12.91;79.87;98516.19;4888634;28;104292;-76
2021/05/26 09:42:28;;;;;;;2.53;1.37;;;;;;;13.25;77.72;98512.34;4886431;28;103052;-77
2021/05/26 09:45:09;;;;;;;2.53;1.60;;;;;;;13.35;77.83;98513.25;4903354;28;103059;-77
2021/05/26 09:47:42;;;;;;;2.57;1.40;;;;;;;13.39;77.94;98513.81;4887498;28;103938;-77
2021/05/26 09:50:22;;;;;;;1.77;1.30;;;;;;;13.39;79.46;98515.66;4897674;28;104709;-78
2021/05/26 09:53:01;;;;;;;4.37;1.60;;;;;;;13.05;77.76;98513.19;4902202;28;103122;-78
2021/05/26 09:55:34;;;;;;;4.00;1.53;;;;;;;12.88;78.41;98508.50;4907792;28;103230;-78
2021/05/26 09:58:04;;;;;;;2.67;1.20;;;;;;;13.13;78.50;98508.13;4906447;28;103610;-78
2021/05/26 10:00:36;;;;;;;5.37;1.43;;;;;;;12.83;78.60;98513.31;4907631;28;103391;-78
2021/05/26 10:03:07;;;;;;;4.17;1.57;;;;;;;13.05;79.56;98515.84;4906790;28;102422;-78
2021/05/26 10:05:40;;;;;;;3.13;1.60;;;;;;;12.97;78.31;98518.31;4908457;28;103201;-78
2021/05/26 10:08:29;;;;;;;3.10;1.50;;;;;;;13.10;79.48;98508.38;4907238;28;103421;-78
2021/05/26 10:11:19;;;;;;;3.00;1.50;;;;;;;12.92;79.63;98519.66;4912457;28;103283;-78
2021/05/26 10:13:52;;;;;;;3.57;1.30;;;;;;;13.15;79.74;98508.81;4895081;28;102897;-78
2021/05/26 10:16:33;;;;;;;2.07;1.10;;;;;;;13.47;77.48;98508.72;4907889;28;102481;-78
2021/05/26 10:19:17;;;;;;;2.43;1.70;;;;;;;13.61;76.38;98515.47;4907047;28;102694;-78
2021/05/26 10:21:50;;;;;;;2.33;1.30;;;;;;;13.03;76.47;98507.19;4906603;28;102507;-78
2021/05/26 10:24:23;;;;;;;3.37;1.30;;;;;;;13.49;77.60;98508.56;4890077;28;103022;-77
2021/05/26 10:27:22;;;;;;;4.17;1.20;;;;;;;13.28;77.54;98506.78;4896415;28;102337;-77
2021/05/26 10:29:58;;;;;;;3.00;1.40;;;;;;;13.39;76.71;98507.69;4896131;28;103874;-77
2021/05/26 10:32:48;;;;;;;1.33;1.17;;;;;;;13.30;76.77;98510.13;4910972;28;102641;-78
2021/05/26 10:35:18;;;;;;;2.03;1.00;;;;;;;13.33;76.55;98504.56;4910925;28;102598;-78
2021/05/26 10:37:59;;;;;;;1.17;0.90;;;;;;;13.21;75.69;98503.00;4906828;28;103007;-78
2021/05/26 10:40:44;;;;;;;2.03;0.97;;;;;;;13.43;75.09;98517.91;4907230;28;103499;-78
2021/05/26 10:43:55;;;;;;;1.70;0.80;;;;;;;13.53;75.24;98515.28;4907474;28;104294;-78
2021/05/26 10:46:34;;;;;;;2.10;1.00;;;;;;;13.62;75.24;98511.81;4847827;29;102631;-78
2021/05/26 10:49:20;;;;;;;0.77;0.63;;;;;;;13.90;74.10;98505.75;4847981;29;102681;-78
2021/05/26 10:51:52;;;;;;;1.37;0.60;;;;;;;13.80;73.50;98503.09;4852858;28;104530;-78
2021/05/26 10:54:58;;;;;;;0.83;0.60;;;;;;;13.77;71.81;98513.97;4905377;28;103746;-78
2021/05/26 10:57:32;;;;;;;1.50;0.80;;;;;;;13.62;71.50;98498.53;4907635;28;102450;-78
2021/05/26 11:00:22;;;;;;;2.10;0.90;;;;;;;13.47;71.59;98499.91;4907711;28;102484;-78
2021/05/26 11:03:41;;;;;;;2.00;1.07;;;;;;;13.50;71.51;98495.16;4906079;28;103484;-78
2021/05/26 11:06:38;;;;;;;1.50;0.87;;;;;;;13.82;71.44;98500.28;4847740;29;104405;-78
2021/05/26 11:09:14;;;;;;;1.07;0.90;;;;;;;13.79;71.26;98489.94;4776098;29;102652;-78
2021/05/26 11:11:49;;;;;;;2.13;0.90;;;;;;;13.96;71.18;98486.63;4848580;29;103240;-78
2021/05/26 11:14:26;;;;;;;1.70;0.97;;;;;;;13.99;70.92;98491.66;4846252;29;104947;-78
2021/05/26 11:20:22;;;;;;;1.27;0.70;;;;;;;13.58;71.08;98491.84;4813766;28;102671;-78
2021/05/26 11:22:52;;;;;;;3.27;0.70;;;;;;;13.59;70.95;98486.38;4892983;28;102542;-78
2021/05/26 11:25:23;;;;;;;1.03;0.70;;;;;;;13.72;71.24;98471.06;4917331;28;103502;-77
2021/05/26 11:28:08;;;;;;;0.80;0.57;;;;;;;13.94;71.52;98483.28;4892493;28;104655;-77
2021/05/26 11:30:40;;;;;;;1.90;0.70;;;;;;;14.08;70.48;98480.22;4904711;28;102902;-78
2021/05/26 11:33:21;;;;;;;0.90;0.70;;;;;;;13.80;70.36;98471.22;4899532;28;102752;-78
2021/05/26 11:36:04;;;;;;;1.83;0.80;;;;;;;13.54;70.51;98472.69;4906430;28;103482;-78
2021/05/26 11:38:34;;;;;;;1.67;0.80;;;;;;;13.95;71.32;98474.31;4889441;28;105460;-78
2021/05/26 11:41:17;;;;;;;2.80;0.70;;;;;;;13.99;70.01;98477.53;4902653;28;103029;-78
2021/05/26 11:43:47;;;;;;;1.07;0.70;;;;;;;14.06;69.77;98479.53;4861087;28;103359;-78
2021/05/26 11:46:26;;;;;;;1.07;0.70;;;;;;;13.74;69.73;98476.22;4886763;28;102943;-78
2021/05/26 11:48:58;;;;;;;1.43;0.60;;;;;;;13.90;69.82;98481.84;4870448;28;104288;-78
2021/05/26 11:51:34;;;;;;;2.43;0.77;;;;;;;14.10;69.97;98477.41;4908576;28;103511;-79
2021/05/26 11:54:06;;;;;;;1.83;0.90;;;;;;;14.39;68.56;98463.22;4887007;28;102635;-78
2021/05/26 11:56:37;;;;;;;1.87;0.87;;;;;;;14.63;68.73;98469.91;4887403;28;102613;-79
2021/05/26 11:59:12;;;;;;;1.87;1.17;;;;;;;14.57;68.09;98471.31;4897990;28;102608;-78